createdAt,value
2022-09-03T00:00:09.440Z,18.73
2022-09-03T00:03:06.421Z,18.70
2022-09-03T00:06:30.730Z,18.84
2022-09-03T00:09:24.789Z,18.76
2022-09-03T00:12:26.900Z,18.64
2022-09-03T00:15:12.276Z,18.76
2022-09-03T00:18:04.842Z,18.66
2022-09-03T00:20:50.955Z,18.60
2022-09-03T00:23:30.369Z,18.78
2022-09-03T00:26:12.357Z,18.72
2022-09-03T00:29:06.608Z,18.77
2022-09-03T00:31:47.605Z,18.60
2022-09-03T00:34:37.997Z,18.73
2022-09-03T00:37:05.554Z,18.68
2022-09-03T00:39:33.810Z,18.60
2022-09-03T00:42:37.523Z,18.65
2022-09-03T00:45:57.830Z,18.69
2022-09-03T00:48:48.664Z,18.66
2022-09-03T00:51:33.944Z,18.63
2022-09-03T00:55:01.512Z,18.57
2022-09-03T00:58:13.877Z,18.71
2022-09-03T01:00:45.629Z,18.66
2022-09-03T01:04:06.509Z,18.66
2022-09-03T01:07:10.421Z,18.64
2022-09-03T01:10:16.381Z,18.61
2022-09-03T01:13:30.000Z,18.71
2022-09-03T01:16:39.847Z,18.64
2022-09-03T01:20:02.959Z,18.65
2022-09-03T01:23:14.379Z,18.67
2022-09-03T01:26:35.408Z,18.56
2022-09-03T01:29:35.264Z,18.54
2022-09-03T01:32:34.797Z,18.58
2022-09-03T01:35:47.486Z,18.47
2022-09-03T01:38:47.223Z,18.38
2022-09-03T01:42:21.304Z,18.34
2022-09-03T01:45:22.569Z,18.56
2022-09-03T01:48:42.212Z,18.50
2022-09-03T01:51:23.169Z,18.61
2022-09-03T01:54:22.013Z,18.47
2022-09-03T01:57:46.041Z,18.45
2022-09-03T02:00:20.640Z,18.43
2022-09-03T02:02:54.244Z,18.57
2022-09-03T02:05:29.201Z,18.60
2022-09-03T02:08:07.350Z,18.52
2022-09-03T02:10:53.685Z,18.53
2022-09-03T02:13:51.140Z,18.49
2022-09-03T02:16:28.384Z,18.50
2022-09-03T02:19:03.349Z,18.39
2022-09-03T02:21:40.794Z,18.50
2022-09-03T02:24:09.439Z,18.54
2022-09-03T02:26:37.059Z,18.47
2022-09-03T02:29:05.495Z,18.45
2022-09-03T02:31:33.809Z,18.31
2022-09-03T02:34:01.259Z,18.40
2022-09-03T02:36:46.555Z,18.39
2022-09-03T02:39:16.707Z,18.34
2022-09-03T02:41:44.833Z,18.46
2022-09-03T02:44:33.157Z,18.44
2022-09-03T02:47:06.924Z,18.53
2022-09-03T02:49:35.349Z,18.45
2022-09-03T02:52:09.701Z,18.32
2022-09-03T02:54:40.041Z,18.43
2022-09-03T02:57:16.089Z,18.39
2022-09-03T02:59:51.122Z,18.44
2022-09-03T03:02:18.540Z,18.36
2022-09-03T03:04:45.940Z,18.32
2022-09-03T03:07:14.107Z,18.18
2022-09-03T03:09:42.416Z,18.30
2022-09-03T03:12:10.370Z,18.31
2022-09-03T03:14:37.782Z,18.22
2022-09-03T03:17:05.729Z,18.21
2022-09-03T03:19:33.157Z,18.26
2022-09-03T03:22:00.789Z,18.27
2022-09-03T03:24:28.507Z,18.26
2022-09-03T03:26:59.809Z,18.18
2022-09-03T03:29:27.936Z,18.28
2022-09-03T03:31:55.235Z,18.36
2022-09-03T03:34:23.369Z,18.28
2022-09-03T03:36:50.764Z,18.32
2022-09-03T03:39:18.300Z,18.33
2022-09-03T03:41:45.663Z,18.39
2022-09-03T03:44:12.977Z,18.41
2022-09-03T03:46:41.929Z,18.44
2022-09-03T03:49:11.100Z,18.40
2022-09-03T03:51:39.313Z,18.48
2022-09-03T03:54:06.933Z,18.38
2022-09-03T03:56:35.478Z,18.40
2022-09-03T03:59:03.611Z,18.44
2022-09-03T04:01:31.116Z,18.44
2022-09-03T04:04:01.807Z,18.35
2022-09-03T04:06:29.592Z,18.39
2022-09-03T04:08:57.031Z,18.50
2022-09-03T04:11:27.058Z,18.45
2022-09-03T04:13:54.897Z,18.51
2022-09-03T04:16:27.416Z,18.34
2022-09-03T04:18:56.800Z,18.36
2022-09-03T04:21:31.551Z,18.28
2022-09-03T04:23:59.473Z,18.25
2022-09-03T04:26:34.274Z,18.15
2022-09-03T04:29:07.223Z,18.21
2022-09-03T04:31:38.752Z,18.28
2022-09-03T04:34:07.418Z,18.30
2022-09-03T04:36:35.177Z,18.33
2022-09-03T04:39:02.863Z,18.35
2022-09-03T04:41:31.894Z,18.35
2022-09-03T04:44:00.394Z,18.41
2022-09-03T04:46:35.367Z,18.49
2022-09-03T04:49:03.018Z,18.48
2022-09-03T04:51:31.809Z,18.48
2022-09-03T04:54:02.542Z,18.48
2022-09-03T04:56:35.112Z,18.46
2022-09-03T04:59:09.586Z,18.46
2022-09-03T05:01:40.586Z,18.40
2022-09-03T05:04:08.988Z,18.41
2022-09-03T05:06:37.657Z,18.31
2022-09-03T05:09:06.010Z,18.46
2022-09-03T05:11:36.272Z,18.47
2022-09-03T05:14:05.873Z,18.57
2022-09-03T05:16:33.379Z,18.48
2022-09-03T05:19:01.435Z,18.60
2022-09-03T05:21:30.732Z,18.57
2022-09-03T05:24:01.860Z,18.59
2022-09-03T05:26:37.129Z,18.61
2022-09-03T05:29:07.813Z,18.61
2022-09-03T05:31:39.575Z,18.64
2022-09-03T05:34:07.754Z,18.58
2022-09-03T05:36:38.313Z,18.56
2022-09-03T05:39:06.503Z,18.57
2022-09-03T05:41:34.465Z,18.55
2022-09-03T05:44:02.579Z,18.58
2022-09-03T05:46:35.077Z,18.59
2022-09-03T05:49:06.438Z,18.65
2022-09-03T05:51:36.693Z,18.56
2022-09-03T05:54:04.266Z,18.69
2022-09-03T05:56:35.697Z,18.60
2022-09-03T05:59:09.367Z,18.60
2022-09-03T06:01:50.937Z,18.64
2022-09-03T06:04:20.393Z,18.68
2022-09-03T06:06:49.030Z,18.69
2022-09-03T06:09:23.288Z,18.56
2022-09-03T06:11:54.343Z,18.65
2022-09-03T06:14:25.244Z,18.72
2022-09-03T06:16:53.089Z,18.72
2022-09-03T06:19:20.999Z,18.78
2022-09-03T06:21:48.891Z,18.80
2022-09-03T06:24:26.472Z,18.78
2022-09-03T06:26:59.346Z,18.93
2022-09-03T06:29:27.644Z,18.79
2022-09-03T06:31:55.085Z,18.97
2022-09-03T06:34:25.561Z,19.01
2022-09-03T06:36:54.554Z,18.91
2022-09-03T06:39:22.421Z,18.97
2022-09-03T06:41:51.847Z,19.07
2022-09-03T06:44:19.320Z,19.15
2022-09-03T06:46:48.502Z,19.12
2022-09-03T06:49:15.853Z,19.12
2022-09-03T06:51:44.075Z,19.17
2022-09-03T06:54:13.262Z,19.05
2022-09-03T06:56:41.985Z,19.25
2022-09-03T06:59:15.224Z,19.62
2022-09-03T07:01:46.159Z,19.53
2022-09-03T07:04:20.275Z,19.44
2022-09-03T07:06:47.809Z,19.54
2022-09-03T07:09:18.150Z,19.58
2022-09-03T07:11:49.388Z,19.57
2022-09-03T07:14:22.305Z,19.46
2022-09-03T07:16:50.688Z,19.60
2022-09-03T07:19:18.348Z,19.70
2022-09-03T07:21:49.988Z,19.76
2022-09-03T07:24:22.796Z,19.89
2022-09-03T07:26:50.218Z,19.90
2022-09-03T07:29:21.902Z,19.74
2022-09-03T07:31:51.934Z,19.85
2022-09-03T07:34:22.125Z,19.93
2022-09-03T07:36:51.384Z,19.88
2022-09-03T07:39:19.838Z,19.96
2022-09-03T07:41:47.769Z,19.99
2022-09-03T07:44:19.752Z,20.03
2022-09-03T07:46:51.944Z,19.94
2022-09-03T07:49:21.732Z,20.10
2022-09-03T07:51:54.305Z,20.09
2022-09-03T07:54:23.572Z,20.07
2022-09-03T07:56:51.394Z,19.99
2022-09-03T07:59:19.250Z,19.87
2022-09-03T08:01:46.572Z,19.98
2022-09-03T08:04:14.137Z,19.99
2022-09-03T08:06:42.286Z,20.04
2022-09-03T08:09:13.930Z,20.06
2022-09-03T08:11:43.761Z,20.05
2022-09-03T08:14:15.435Z,20.12
2022-09-03T08:16:48.081Z,20.09
2022-09-03T08:19:18.424Z,20.02
2022-09-03T08:21:46.149Z,20.08
2022-09-03T08:24:20.916Z,20.07
2022-09-03T08:26:52.132Z,20.04
2022-09-03T08:29:21.467Z,20.06
2022-09-03T08:31:49.295Z,20.11
2022-09-03T08:34:17.803Z,19.91
2022-09-03T08:36:47.273Z,20.03
2022-09-03T08:39:14.776Z,20.00
2022-09-03T08:42:29.147Z,19.82
2022-09-03T08:45:06.630Z,18.98
2022-09-03T08:47:48.290Z,18.79
2022-09-03T08:50:36.044Z,18.89
2022-09-03T08:53:55.965Z,19.06
2022-09-03T08:56:33.026Z,19.16
2022-09-03T08:59:02.200Z,19.08
2022-09-03T09:02:51.039Z,19.11
2022-09-03T09:05:47.064Z,19.04
2022-09-03T09:09:03.054Z,19.14
2022-09-03T09:12:15.963Z,19.10
2022-09-03T09:15:43.237Z,19.15
2022-09-03T09:19:03.352Z,19.15
2022-09-03T09:22:41.228Z,19.11
2022-09-03T09:25:20.528Z,19.14
2022-09-03T09:28:36.156Z,19.14
2022-09-03T09:31:11.617Z,19.27
2022-09-03T09:33:39.384Z,19.24
2022-09-03T09:36:15.368Z,19.22
2022-09-03T09:38:45.556Z,19.28
2022-09-03T09:41:23.369Z,19.32
2022-09-03T09:44:05.704Z,19.39
2022-09-03T09:46:43.124Z,19.43
2022-09-03T09:49:58.602Z,19.35
2022-09-03T09:52:30.273Z,19.04
2022-09-03T09:55:19.190Z,19.28
2022-09-03T09:57:47.331Z,19.38
2022-09-03T10:00:18.781Z,19.24
2022-09-03T10:02:54.755Z,19.37
2022-09-03T10:05:36.795Z,19.35
2022-09-03T10:08:22.023Z,19.39
2022-09-03T10:10:51.832Z,19.40
2022-09-03T10:13:30.789Z,19.30
2022-09-03T10:16:43.315Z,19.37
2022-09-03T10:19:26.216Z,19.37
2022-09-03T10:22:18.862Z,19.32
2022-09-03T10:25:02.888Z,19.46
2022-09-03T10:27:32.139Z,19.42
2022-09-03T10:30:00.730Z,19.37
2022-09-03T10:33:07.116Z,19.63
2022-09-03T10:35:52.716Z,19.78
2022-09-03T10:38:34.591Z,19.92
2022-09-03T10:41:55.832Z,20.14
2022-09-03T10:44:43.681Z,20.39
2022-09-03T10:48:17.309Z,20.29
2022-09-03T10:51:49.488Z,20.33
2022-09-03T10:55:03.939Z,20.40
2022-09-03T10:58:38.338Z,20.80
2022-09-03T11:02:15.290Z,21.16
2022-09-03T11:05:30.529Z,21.47
2022-09-03T11:08:21.957Z,21.49
2022-09-03T11:11:08.764Z,21.47
2022-09-03T11:14:12.249Z,21.65
2022-09-03T11:16:54.245Z,21.96
2022-09-03T11:20:06.519Z,22.33
2022-09-03T11:22:35.000Z,22.21
2022-09-03T11:25:05.589Z,22.53
2022-09-03T11:28:12.780Z,22.75
2022-09-03T11:31:52.945Z,22.95
2022-09-03T11:34:32.266Z,22.85
2022-09-03T11:37:26.280Z,22.71
2022-09-03T11:40:19.368Z,22.87
2022-09-03T11:42:47.385Z,22.99
2022-09-03T11:45:30.174Z,22.84
2022-09-03T11:47:57.781Z,22.97
2022-09-03T11:50:34.543Z,22.92
2022-09-03T11:53:15.118Z,22.70
2022-09-03T11:56:05.198Z,22.99
2022-09-03T11:58:42.960Z,23.22
2022-09-03T12:01:20.748Z,23.19
2022-09-03T12:04:09.756Z,23.42
2022-09-03T12:07:40.595Z,23.67
2022-09-03T12:10:41.751Z,24.09
2022-09-03T12:14:21.330Z,23.95
2022-09-03T12:18:31.967Z,23.93
2022-09-03T12:21:00.166Z,23.92
2022-09-03T12:23:51.035Z,24.01
2022-09-03T12:26:27.552Z,24.19
2022-09-03T12:29:00.872Z,23.87
2022-09-03T12:31:46.760Z,23.87
2022-09-03T12:34:18.636Z,23.87
2022-09-03T12:36:52.148Z,23.91
2022-09-03T12:42:30.880Z,24.58
2022-09-03T12:45:12.728Z,24.60
2022-09-03T12:47:41.994Z,24.93
2022-09-03T12:50:17.075Z,25.12
2022-09-03T12:52:53.782Z,25.36
2022-09-03T12:55:36.830Z,25.74
2022-09-03T12:58:54.342Z,25.86
2022-09-03T13:01:33.456Z,26.00
2022-09-03T13:04:15.269Z,26.29
2022-09-03T13:07:08.275Z,26.00
2022-09-03T13:09:39.889Z,25.90
2022-09-03T13:12:07.856Z,25.88
2022-09-03T13:14:48.273Z,25.72
2022-09-03T13:18:01.983Z,25.45
2022-09-03T13:21:32.589Z,25.76
2022-09-03T13:25:01.983Z,26.14
2022-09-03T13:28:18.956Z,26.41
2022-09-03T13:31:21.662Z,26.40
2022-09-03T13:34:12.928Z,26.39
2022-09-03T13:37:10.143Z,26.88
2022-09-03T13:40:36.249Z,26.55
2022-09-03T13:43:43.536Z,26.30
2022-09-03T13:47:02.577Z,26.06
2022-09-03T13:50:09.206Z,25.98
2022-09-03T13:53:10.504Z,26.16
2022-09-03T13:55:55.828Z,26.38
2022-09-03T13:58:48.920Z,26.25
2022-09-03T14:01:46.074Z,26.34
2022-09-03T14:04:29.169Z,26.25
2022-09-03T14:07:15.756Z,26.05
2022-09-03T14:10:46.541Z,26.24
2022-09-03T14:13:59.490Z,25.96
2022-09-03T14:16:39.802Z,25.77
2022-09-03T14:20:00.540Z,25.77
2022-09-03T14:23:08.785Z,25.67
2022-09-03T14:25:37.108Z,25.48
2022-09-03T14:28:44.435Z,25.44
2022-09-03T14:32:03.445Z,25.28
2022-09-03T14:35:52.839Z,25.10
2022-09-03T14:39:24.566Z,24.84
2022-09-03T14:42:07.823Z,24.87
2022-09-03T14:45:13.367Z,24.76
2022-09-03T14:48:58.248Z,24.51
2022-09-03T14:52:39.423Z,24.47
2022-09-03T14:55:40.692Z,24.32
2022-09-03T14:58:54.059Z,24.32
2022-09-03T15:01:39.451Z,24.41
2022-09-03T15:04:50.259Z,24.33
2022-09-03T15:07:59.113Z,24.04
2022-09-03T15:10:56.397Z,24.17
2022-09-03T15:14:18.679Z,24.15
2022-09-03T15:17:24.664Z,23.83
2022-09-03T15:20:53.359Z,23.87
2022-09-03T15:23:59.916Z,23.83
2022-09-03T15:27:19.298Z,23.78
2022-09-03T15:30:13.191Z,23.79
2022-09-03T15:33:06.855Z,23.76
2022-09-03T15:36:14.996Z,23.73
2022-09-03T15:39:09.322Z,23.97
2022-09-03T15:42:10.347Z,24.20
2022-09-03T15:44:57.086Z,24.18
2022-09-03T15:47:50.719Z,24.42
2022-09-03T15:50:58.942Z,24.44
2022-09-03T15:54:16.386Z,24.23
2022-09-03T15:57:15.591Z,24.18
2022-09-03T16:00:13.245Z,24.10
2022-09-03T16:03:20.388Z,24.08
2022-09-03T16:06:17.237Z,24.13
2022-09-03T16:09:03.223Z,24.03
2022-09-03T16:12:07.424Z,24.11
2022-09-03T16:15:00.864Z,24.25
2022-09-03T16:18:37.376Z,24.04
2022-09-03T16:21:43.505Z,24.04
2022-09-03T16:25:07.408Z,24.06
2022-09-03T16:28:19.743Z,24.12
2022-09-03T16:31:57.273Z,23.99
2022-09-03T16:35:44.020Z,23.92
2022-09-03T16:38:46.697Z,23.79
2022-09-03T16:41:58.316Z,23.74
2022-09-03T16:45:20.301Z,23.69
2022-09-03T16:48:50.813Z,23.79
2022-09-03T16:51:55.349Z,23.58
2022-09-03T16:55:14.737Z,23.76
2022-09-03T16:58:26.961Z,23.66
2022-09-03T17:02:23.687Z,23.46
2022-09-03T17:05:12.501Z,23.38
2022-09-03T17:08:42.561Z,23.27
2022-09-03T17:12:04.833Z,23.27
2022-09-03T17:15:16.843Z,23.15
2022-09-03T17:18:49.889Z,23.24
2022-09-03T17:22:20.675Z,23.03
2022-09-03T17:25:05.789Z,23.11
2022-09-03T17:28:22.691Z,23.09
2022-09-03T17:31:37.386Z,23.03
2022-09-03T17:35:00.881Z,22.97
2022-09-03T17:38:50.821Z,22.98
2022-09-03T17:42:12.558Z,23.03
2022-09-03T17:45:35.214Z,22.79
2022-09-03T17:48:42.186Z,22.87
2022-09-03T17:51:50.442Z,22.86
2022-09-03T17:54:37.184Z,22.77
2022-09-03T17:57:38.240Z,22.85
2022-09-03T18:00:21.992Z,22.68
2022-09-03T18:03:49.688Z,22.72
2022-09-03T18:06:41.802Z,22.68
2022-09-03T18:09:57.412Z,22.59
2022-09-03T18:13:55.524Z,22.58
2022-09-03T18:16:39.624Z,22.48
2022-09-03T18:19:58.543Z,22.40
2022-09-03T18:23:03.070Z,22.33
2022-09-03T18:25:52.270Z,22.41
2022-09-03T18:29:18.165Z,22.34
2022-09-03T18:32:04.173Z,22.26
2022-09-03T18:34:54.992Z,22.16
2022-09-03T18:37:46.468Z,22.27
2022-09-03T18:40:53.840Z,22.09
2022-09-03T18:44:22.158Z,22.10
2022-09-03T18:48:27.067Z,22.07
2022-09-03T18:51:52.451Z,21.98
2022-09-03T18:55:18.303Z,21.98
2022-09-03T18:59:01.117Z,21.99
2022-09-03T19:01:59.805Z,21.88
2022-09-03T19:05:25.628Z,21.75
2022-09-03T19:08:38.853Z,21.73
2022-09-03T19:12:27.716Z,21.58
2022-09-03T19:15:38.982Z,21.56
2022-09-03T19:19:42.196Z,21.58
2022-09-03T19:22:33.067Z,21.58
2022-09-03T19:25:33.940Z,21.58
2022-09-03T19:28:42.656Z,21.50
2022-09-03T19:32:06.436Z,21.57
2022-09-03T19:35:23.557Z,21.39
2022-09-03T19:39:24.351Z,21.41
2022-09-03T19:42:41.928Z,21.38
2022-09-03T19:46:10.440Z,21.28
2022-09-03T19:49:43.869Z,21.14
2022-09-03T19:53:23.371Z,21.11
2022-09-03T19:56:18.360Z,21.24
2022-09-03T19:59:43.376Z,21.07
2022-09-03T20:02:29.810Z,21.09
2022-09-03T20:05:24.992Z,21.19
2022-09-03T20:08:14.717Z,21.16
2022-09-03T20:10:48.893Z,21.07
2022-09-03T20:13:20.687Z,21.02
2022-09-03T20:16:14.602Z,21.06
2022-09-03T20:19:45.636Z,21.04
2022-09-03T20:22:44.357Z,21.05
2022-09-03T20:26:11.416Z,20.99
2022-09-03T20:29:34.092Z,20.92
2022-09-03T20:32:41.715Z,20.72
2022-09-03T20:35:53.455Z,20.92
2022-09-03T20:39:03.835Z,20.82
2022-09-03T20:42:14.366Z,20.84
2022-09-03T20:45:32.683Z,20.67
2022-09-03T20:48:43.318Z,20.78
2022-09-03T20:51:46.087Z,20.87
2022-09-03T20:54:42.578Z,20.84
2022-09-03T20:58:11.393Z,20.83
2022-09-03T21:01:16.544Z,20.69
2022-09-03T21:04:32.417Z,20.73
2022-09-03T21:07:43.167Z,20.61
2022-09-03T21:10:48.013Z,20.67
2022-09-03T21:13:52.728Z,20.73
2022-09-03T21:17:00.179Z,20.66
2022-09-03T21:20:28.604Z,20.60
2022-09-03T21:23:38.276Z,20.50
2022-09-03T21:26:33.924Z,20.44
2022-09-03T21:29:30.877Z,20.46
2022-09-03T21:32:29.699Z,20.51
2022-09-03T21:35:42.832Z,20.44
2022-09-03T21:38:31.388Z,20.43
2022-09-03T21:41:34.724Z,20.37
2022-09-03T21:44:32.918Z,20.39
2022-09-03T21:47:10.545Z,20.31
2022-09-03T21:49:57.447Z,20.33
2022-09-03T21:53:02.909Z,20.35
2022-09-03T21:56:07.865Z,20.33
2022-09-03T21:59:22.469Z,20.40
2022-09-03T22:02:28.802Z,20.23
2022-09-03T22:04:58.665Z,20.27
2022-09-03T22:08:23.164Z,20.18
2022-09-03T22:12:03.701Z,20.25
2022-09-03T22:14:47.935Z,20.28
2022-09-03T22:17:56.923Z,20.21
2022-09-03T22:20:28.629Z,20.17
2022-09-03T22:23:24.804Z,20.15
2022-09-03T22:26:14.511Z,20.02
2022-09-03T22:29:24.504Z,20.09
2022-09-03T22:32:25.363Z,20.13
2022-09-03T22:35:33.811Z,20.10
2022-09-03T22:38:33.074Z,19.93
2022-09-03T22:41:45.935Z,19.90
2022-09-03T22:44:50.961Z,19.85
2022-09-03T22:48:06.389Z,19.83
2022-09-03T22:50:59.288Z,19.79
2022-09-03T22:54:31.968Z,19.75
2022-09-03T22:57:01.347Z,19.69
2022-09-03T22:59:41.512Z,19.82
2022-09-03T23:02:26.420Z,19.89
2022-09-03T23:05:28.083Z,19.79
2022-09-03T23:08:33.732Z,19.75
2022-09-03T23:11:29.971Z,19.71
2022-09-03T23:14:12.389Z,19.80
2022-09-03T23:16:54.354Z,19.77
2022-09-03T23:19:40.878Z,19.86
2022-09-03T23:22:41.713Z,19.70
2022-09-03T23:25:25.643Z,19.68
2022-09-03T23:28:22.061Z,19.72
2022-09-03T23:30:49.756Z,19.61
2022-09-03T23:33:17.166Z,19.63
2022-09-03T23:37:32.415Z,19.62
2022-09-03T23:40:15.284Z,19.60
2022-09-03T23:43:48.205Z,19.65
2022-09-03T23:47:03.649Z,19.50
2022-09-03T23:50:11.968Z,19.59
2022-09-03T23:53:53.619Z,19.47
2022-09-03T23:57:13.032Z,19.54
